createdAt,value
2022-07-26T00:00:08.808Z,47.32
2022-07-26T00:02:35.671Z,45.83
2022-07-26T00:05:02.523Z,46.47
2022-07-26T00:07:29.068Z,46.67
2022-07-26T00:10:05.052Z,48.14
2022-07-26T00:12:32.207Z,46.54
2022-07-26T00:14:58.982Z,47.52
2022-07-26T00:17:25.893Z,47.79
2022-07-26T00:19:52.442Z,48.15
2022-07-26T00:22:34.335Z,47.68
2022-07-26T00:25:03.675Z,47.61
2022-07-26T00:27:30.559Z,48.58
2022-07-26T00:29:57.122Z,48.32
2022-07-26T00:32:23.760Z,47.79
2022-07-26T00:34:52.013Z,48.00
2022-07-26T00:37:20.467Z,48.97
2022-07-26T00:39:47.532Z,48.68
2022-07-26T00:42:14.131Z,47.51
2022-07-26T00:44:42.543Z,47.22
2022-07-26T00:47:09.813Z,48.18
2022-07-26T00:49:36.672Z,47.70
2022-07-26T00:52:05.317Z,47.37
2022-07-26T00:54:32.453Z,49.06
2022-07-26T00:57:00.312Z,48.80
2022-07-26T00:59:27.051Z,48.14
2022-07-26T01:01:53.842Z,47.67
2022-07-26T01:04:20.919Z,46.70
2022-07-26T01:06:48.951Z,48.05
2022-07-26T01:09:16.545Z,48.26
2022-07-26T01:11:43.489Z,47.62
2022-07-26T01:14:10.722Z,48.00
2022-07-26T01:16:37.649Z,47.99
2022-07-26T01:19:04.594Z,48.81
2022-07-26T01:21:32.041Z,48.12
2022-07-26T01:23:58.749Z,48.48
2022-07-26T01:26:25.790Z,48.70
2022-07-26T01:28:52.735Z,48.84
2022-07-26T01:31:19.463Z,48.47
2022-07-26T01:33:46.246Z,48.57
2022-07-26T01:36:12.834Z,49.64
2022-07-26T01:38:42.692Z,49.62
2022-07-26T01:41:09.727Z,48.99
2022-07-26T01:43:37.265Z,48.20
2022-07-26T01:46:05.558Z,49.52
2022-07-26T01:48:32.257Z,50.01
2022-07-26T01:50:59.058Z,50.98
2022-07-26T01:53:25.627Z,51.64
2022-07-26T01:55:52.526Z,51.06
2022-07-26T01:58:19.304Z,50.99
2022-07-26T02:00:45.886Z,51.43
2022-07-26T02:03:12.536Z,52.03
2022-07-26T02:05:39.515Z,50.98
2022-07-26T02:08:06.191Z,50.05
2022-07-26T02:10:52.497Z,49.17
2022-07-26T02:13:19.371Z,48.99
2022-07-26T02:15:46.066Z,48.49
2022-07-26T02:18:12.864Z,49.72
2022-07-26T02:20:39.365Z,48.73
2022-07-26T02:23:06.441Z,49.02
2022-07-26T02:25:33.016Z,50.46
2022-07-26T02:28:01.196Z,51.66
2022-07-26T02:30:28.161Z,51.48
2022-07-26T02:32:55.413Z,50.75
2022-07-26T02:35:21.999Z,51.18
2022-07-26T02:37:48.789Z,50.63
2022-07-26T02:40:19.090Z,50.91
2022-07-26T02:42:46.392Z,49.47
2022-07-26T02:45:13.295Z,48.65
2022-07-26T02:47:52.476Z,49.27
2022-07-26T02:50:24.342Z,50.83
2022-07-26T02:52:51.800Z,49.73
2022-07-26T02:55:21.551Z,49.15
2022-07-26T02:57:48.172Z,49.08
2022-07-26T03:00:17.706Z,49.43
2022-07-26T03:02:44.382Z,50.01
2022-07-26T03:05:11.651Z,50.69
2022-07-26T03:07:38.174Z,50.36
2022-07-26T03:10:05.742Z,50.75
2022-07-26T03:12:32.306Z,50.61
2022-07-26T03:14:58.849Z,50.34
2022-07-26T03:17:25.764Z,50.39
2022-07-26T03:19:52.595Z,51.26
2022-07-26T03:22:19.297Z,52.00
2022-07-26T03:24:46.108Z,51.69
2022-07-26T03:27:12.639Z,51.11
2022-07-26T03:29:39.265Z,50.26
2022-07-26T03:32:06.275Z,51.58
2022-07-26T03:34:33.127Z,50.64
2022-07-26T03:36:59.819Z,51.11
2022-07-26T03:39:26.353Z,49.65
2022-07-26T03:41:52.887Z,50.36
2022-07-26T03:44:19.463Z,49.66
2022-07-26T03:46:46.092Z,50.65
2022-07-26T03:49:16.681Z,49.80
2022-07-26T03:51:44.008Z,49.01
2022-07-26T03:54:11.301Z,49.76
2022-07-26T03:56:38.973Z,50.20
2022-07-26T03:59:07.888Z,51.78
2022-07-26T04:01:35.337Z,52.82
2022-07-26T04:04:02.878Z,54.50
2022-07-26T04:06:29.564Z,54.39
2022-07-26T04:08:56.754Z,53.50
2022-07-26T04:11:26.725Z,53.96
2022-07-26T04:13:55.809Z,53.85
2022-07-26T04:16:22.670Z,55.47
2022-07-26T04:18:49.398Z,54.40
2022-07-26T04:21:16.576Z,54.88
2022-07-26T04:23:45.410Z,54.01
2022-07-26T04:26:15.831Z,52.82
2022-07-26T04:28:42.716Z,56.25
2022-07-26T04:31:09.367Z,56.56
2022-07-26T04:33:36.104Z,54.86
2022-07-26T04:36:03.456Z,53.62
2022-07-26T04:38:30.680Z,53.55
2022-07-26T04:40:57.985Z,56.00
2022-07-26T04:43:25.028Z,60.15
2022-07-26T04:45:51.835Z,63.42
2022-07-26T04:48:18.447Z,65.26
2022-07-26T04:50:45.070Z,66.77
2022-07-26T04:53:11.660Z,69.11
2022-07-26T04:55:38.724Z,70.07
2022-07-26T04:58:05.286Z,72.46
2022-07-26T05:00:31.860Z,75.44
2022-07-26T05:02:59.739Z,77.73
2022-07-26T05:05:28.821Z,78.81
2022-07-26T05:07:57.100Z,78.79
2022-07-26T05:10:30.816Z,79.22
2022-07-26T05:12:57.406Z,78.18
2022-07-26T05:15:24.080Z,77.97
2022-07-26T05:17:51.300Z,77.79
2022-07-26T05:20:17.907Z,78.05
2022-07-26T05:22:44.754Z,77.51
2022-07-26T05:25:11.341Z,76.66
2022-07-26T05:27:39.038Z,76.20
2022-07-26T05:30:06.066Z,77.61
2022-07-26T05:32:32.598Z,77.35
2022-07-26T05:34:59.222Z,76.10
2022-07-26T05:37:25.829Z,76.74
2022-07-26T05:39:52.341Z,76.78
2022-07-26T05:42:18.892Z,76.88
2022-07-26T05:44:45.516Z,76.86
2022-07-26T05:47:12.883Z,76.87
2022-07-26T05:49:40.493Z,77.34
2022-07-26T05:52:08.154Z,75.93
2022-07-26T05:54:35.007Z,74.92
2022-07-26T05:57:01.603Z,74.64
2022-07-26T05:59:28.572Z,74.95
2022-07-26T06:01:56.639Z,74.76
2022-07-26T06:04:25.011Z,73.73
2022-07-26T06:06:54.560Z,73.96
2022-07-26T06:09:21.686Z,72.79
2022-07-26T06:11:48.175Z,72.16
2022-07-26T06:14:15.005Z,71.29
2022-07-26T06:16:41.970Z,72.71
2022-07-26T06:19:08.764Z,72.98
2022-07-26T06:21:35.299Z,72.00
2022-07-26T06:24:01.852Z,69.50
2022-07-26T06:26:28.458Z,69.46
2022-07-26T06:28:55.113Z,69.32
2022-07-26T06:31:21.720Z,67.41
2022-07-26T06:33:48.855Z,67.80
2022-07-26T06:36:15.507Z,67.18
2022-07-26T06:38:42.105Z,67.25
2022-07-26T06:41:08.839Z,67.40
2022-07-26T06:43:35.353Z,66.57
2022-07-26T06:46:02.090Z,67.17
2022-07-26T06:48:28.735Z,67.61
2022-07-26T06:50:55.546Z,67.19
2022-07-26T06:53:22.153Z,66.07
2022-07-26T06:55:48.901Z,65.57
2022-07-26T06:58:15.459Z,65.08
2022-07-26T07:00:42.153Z,64.28
2022-07-26T07:03:08.689Z,66.59
2022-07-26T07:05:35.387Z,65.16
2022-07-26T07:08:01.930Z,63.11
2022-07-26T07:10:29.223Z,64.68
2022-07-26T07:12:56.092Z,63.92
2022-07-26T07:15:22.733Z,64.71
2022-07-26T07:17:51.587Z,64.48
2022-07-26T07:20:18.384Z,64.90
2022-07-26T07:22:45.045Z,64.00
2022-07-26T07:25:11.716Z,63.35
2022-07-26T07:27:42.077Z,62.47
2022-07-26T07:30:10.947Z,62.87
2022-07-26T07:32:38.042Z,61.20
2022-07-26T07:35:07.967Z,59.60
2022-07-26T07:37:53.646Z,59.06
2022-07-26T07:40:21.030Z,56.91
2022-07-26T07:42:47.617Z,57.99
2022-07-26T07:45:14.959Z,56.12
2022-07-26T07:47:41.646Z,56.51
2022-07-26T07:50:08.746Z,54.17
2022-07-26T07:52:35.408Z,54.23
2022-07-26T07:55:21.837Z,54.19
2022-07-26T07:57:49.835Z,53.56
2022-07-26T08:00:19.271Z,55.08
2022-07-26T08:02:46.851Z,55.18
2022-07-26T08:05:15.306Z,57.04
2022-07-26T08:07:42.653Z,55.78
2022-07-26T08:10:09.668Z,55.60
2022-07-26T08:12:36.531Z,55.89
2022-07-26T08:15:07.524Z,53.95
2022-07-26T08:17:39.831Z,52.92
2022-07-26T08:20:14.747Z,52.24
2022-07-26T08:22:42.624Z,52.42
2022-07-26T08:25:09.693Z,55.00
2022-07-26T08:27:40.848Z,54.12
2022-07-26T08:30:08.629Z,52.17
2022-07-26T08:32:35.846Z,51.54
2022-07-26T08:35:17.890Z,50.15
2022-07-26T08:37:46.550Z,50.77
2022-07-26T08:40:13.292Z,49.46
2022-07-26T08:42:40.124Z,52.12
2022-07-26T08:45:07.223Z,50.52
2022-07-26T08:47:36.269Z,50.03
2022-07-26T08:50:09.738Z,49.79
2022-07-26T08:52:40.007Z,50.86
2022-07-26T08:55:07.240Z,47.70
2022-07-26T08:57:34.403Z,48.45
2022-07-26T09:00:19.308Z,49.67
2022-07-26T09:02:46.572Z,47.94
2022-07-26T09:05:13.971Z,47.95
2022-07-26T09:07:41.388Z,47.46
2022-07-26T09:10:11.390Z,46.96
2022-07-26T09:12:38.751Z,43.43
2022-07-26T09:15:07.744Z,42.19
2022-07-26T09:17:46.879Z,40.76
2022-07-26T09:20:16.313Z,42.49
2022-07-26T09:23:06.075Z,39.86
2022-07-26T09:25:35.733Z,37.60
2022-07-26T09:28:03.397Z,34.99
2022-07-26T09:30:32.041Z,33.06
2022-07-26T09:33:04.507Z,29.00
2022-07-26T09:35:52.301Z,26.90
2022-07-26T09:38:19.536Z,31.74
2022-07-26T09:40:46.837Z,34.10
2022-07-26T09:43:19.710Z,28.92
2022-07-26T09:46:03.816Z,25.92
2022-07-26T09:48:52.190Z,32.82
2022-07-26T09:51:35.209Z,29.51
2022-07-26T09:54:02.403Z,31.03
2022-07-26T09:57:01.734Z,27.68
2022-07-26T09:59:28.850Z,26.48
2022-07-26T10:01:57.721Z,26.26
2022-07-26T10:04:24.970Z,28.01
2022-07-26T10:06:51.751Z,29.19
2022-07-26T10:09:18.773Z,31.94
2022-07-26T10:11:55.366Z,33.89
2022-07-26T10:14:34.028Z,29.88
2022-07-26T10:17:01.772Z,27.50
2022-07-26T10:19:41.696Z,27.83
2022-07-26T10:22:26.733Z,27.34
2022-07-26T10:24:58.033Z,28.40
2022-07-26T10:27:51.341Z,30.80
2022-07-26T10:30:22.423Z,34.51
2022-07-26T10:32:52.119Z,36.30
2022-07-26T10:35:34.025Z,38.29
2022-07-26T10:38:02.735Z,41.59
2022-07-26T10:40:32.295Z,40.72
2022-07-26T10:46:24.896Z,37.82
2022-07-26T10:49:03.584Z,37.11
2022-07-26T10:51:38.764Z,36.04
2022-07-26T10:54:11.127Z,37.14
2022-07-26T10:56:38.403Z,37.03
2022-07-26T10:59:05.758Z,37.34
2022-07-26T11:01:36.739Z,39.61
2022-07-26T11:04:03.543Z,40.74
2022-07-26T11:06:30.559Z,42.14
2022-07-26T11:08:57.639Z,39.77
2022-07-26T11:11:32.064Z,39.42
2022-07-26T11:14:10.236Z,39.26
2022-07-26T11:16:42.053Z,42.02
2022-07-26T11:19:17.088Z,41.87
2022-07-26T11:21:45.072Z,43.04
2022-07-26T11:24:12.399Z,42.72
2022-07-26T11:26:43.689Z,42.51
2022-07-26T11:29:10.764Z,41.96
2022-07-26T11:31:55.694Z,38.53
2022-07-26T11:34:33.741Z,36.54
2022-07-26T11:37:02.859Z,36.71
2022-07-26T11:39:31.414Z,34.91
2022-07-26T11:41:59.730Z,35.61
2022-07-26T11:44:26.542Z,37.41
2022-07-26T11:46:54.009Z,37.22
2022-07-26T11:49:25.088Z,36.88
2022-07-26T11:52:02.019Z,34.43
2022-07-26T11:54:31.070Z,28.94
2022-07-26T11:56:57.717Z,27.34
2022-07-26T11:59:32.054Z,28.15
2022-07-26T12:01:59.732Z,30.23
2022-07-26T12:04:38.411Z,34.38
2022-07-26T12:07:13.416Z,33.10
2022-07-26T12:09:52.046Z,30.18
2022-07-26T12:12:22.560Z,30.95
2022-07-26T12:14:57.591Z,30.51
2022-07-26T12:17:24.209Z,35.70
2022-07-26T12:19:50.885Z,37.68
2022-07-26T12:22:20.186Z,39.01
2022-07-26T12:24:53.275Z,40.21
2022-07-26T12:27:31.140Z,37.80
2022-07-26T12:30:00.760Z,37.71
2022-07-26T12:32:34.470Z,38.35
2022-07-26T12:35:17.238Z,36.98
2022-07-26T12:37:46.775Z,37.54
2022-07-26T12:40:23.214Z,36.37
2022-07-26T12:42:49.721Z,36.44
2022-07-26T12:45:18.335Z,35.67
2022-07-26T12:47:47.510Z,34.41
2022-07-26T12:50:15.368Z,35.19
2022-07-26T12:52:42.258Z,33.96
2022-07-26T12:55:13.554Z,32.40
2022-07-26T12:57:47.826Z,31.93
2022-07-26T13:00:16.159Z,30.55
2022-07-26T13:02:43.285Z,30.49
2022-07-26T13:05:11.013Z,30.80
2022-07-26T13:07:38.613Z,30.11
2022-07-26T13:10:32.029Z,30.97
2022-07-26T13:12:52.855Z,32.51
2022-07-26T13:15:19.438Z,33.37
2022-07-26T13:17:46.035Z,32.20
2022-07-26T13:20:12.615Z,32.38
2022-07-26T13:22:40.247Z,31.98
2022-07-26T13:25:08.418Z,31.32
2022-07-26T13:27:37.370Z,33.53
2022-07-26T13:30:06.291Z,33.25
2022-07-26T13:32:33.073Z,32.91
2022-07-26T13:34:59.566Z,36.46
2022-07-26T13:37:26.065Z,36.54
2022-07-26T13:39:52.984Z,36.58
2022-07-26T13:42:19.587Z,36.95
2022-07-26T13:44:46.158Z,35.37
2022-07-26T13:47:12.931Z,35.08
2022-07-26T13:49:39.555Z,33.70
2022-07-26T13:52:10.907Z,36.11
2022-07-26T13:54:42.488Z,36.10
2022-07-26T13:57:09.054Z,36.36
2022-07-26T13:59:35.561Z,36.91
2022-07-26T14:02:04.618Z,35.90
2022-07-26T14:04:31.368Z,36.04
2022-07-26T14:06:58.062Z,35.82
2022-07-26T14:09:24.799Z,36.43
2022-07-26T14:11:52.397Z,35.05
2022-07-26T14:14:18.960Z,36.24
2022-07-26T14:16:45.564Z,35.39
2022-07-26T14:19:14.916Z,34.35
2022-07-26T14:21:47.255Z,35.76
2022-07-26T14:24:26.396Z,36.15
2022-07-26T14:26:58.288Z,34.66
2022-07-26T14:29:26.024Z,34.77
2022-07-26T14:31:52.941Z,33.53
2022-07-26T14:34:19.703Z,33.21
2022-07-26T14:36:46.280Z,33.19
2022-07-26T14:39:12.846Z,33.01
2022-07-26T14:41:39.452Z,32.89
2022-07-26T14:44:06.526Z,32.99
2022-07-26T14:46:33.269Z,32.61
2022-07-26T14:48:59.881Z,32.44
2022-07-26T14:51:26.657Z,32.16
2022-07-26T14:53:53.232Z,32.83
2022-07-26T14:56:20.310Z,32.20
2022-07-26T14:58:46.851Z,34.46
2022-07-26T15:01:13.588Z,34.76
2022-07-26T15:03:40.456Z,33.84
2022-07-26T15:06:06.979Z,35.29
2022-07-26T15:08:33.500Z,34.34
2022-07-26T15:11:00.261Z,33.97
2022-07-26T15:13:27.134Z,34.12
2022-07-26T15:15:53.665Z,34.08
2022-07-26T15:18:20.447Z,33.91
2022-07-26T15:20:47.062Z,34.44
2022-07-26T15:23:15.248Z,34.13
2022-07-26T15:25:41.991Z,34.31
2022-07-26T15:28:08.923Z,33.87
2022-07-26T15:30:36.449Z,33.68
2022-07-26T15:33:03.155Z,34.19
2022-07-26T15:35:30.192Z,34.65
2022-07-26T15:37:57.674Z,34.97
2022-07-26T15:40:24.775Z,34.35
2022-07-26T15:42:52.205Z,34.34
2022-07-26T15:45:20.221Z,34.46
2022-07-26T15:48:03.166Z,34.39
2022-07-26T15:50:34.833Z,33.88
2022-07-26T15:53:01.459Z,34.75
2022-07-26T15:55:28.179Z,34.81
2022-07-26T15:57:55.071Z,34.97
2022-07-26T16:00:21.778Z,35.18
2022-07-26T16:02:51.268Z,36.07
2022-07-26T16:05:17.912Z,36.33
2022-07-26T16:07:44.841Z,37.41
2022-07-26T16:10:12.912Z,37.21
2022-07-26T16:12:40.576Z,37.85
2022-07-26T16:15:09.464Z,37.23
2022-07-26T16:17:36.269Z,36.59
2022-07-26T16:20:03.435Z,35.94
2022-07-26T16:22:31.626Z,36.22
2022-07-26T16:24:58.184Z,35.96
2022-07-26T16:27:24.716Z,36.21
2022-07-26T16:29:52.465Z,36.59
2022-07-26T16:32:21.137Z,37.39
2022-07-26T16:34:48.130Z,38.77
2022-07-26T16:37:15.282Z,43.22
2022-07-26T16:39:41.889Z,48.02
2022-07-26T16:42:08.529Z,50.29
2022-07-26T16:44:36.249Z,55.02
2022-07-26T16:47:03.576Z,56.25
2022-07-26T16:49:30.419Z,56.64
2022-07-26T16:51:57.608Z,58.04
2022-07-26T16:54:24.440Z,59.22
2022-07-26T16:56:51.035Z,59.57
2022-07-26T16:59:18.165Z,60.98
2022-07-26T17:01:44.942Z,60.82
2022-07-26T17:04:11.565Z,61.18
2022-07-26T17:06:38.198Z,60.59
2022-07-26T17:09:04.784Z,59.16
2022-07-26T17:11:31.432Z,58.69
2022-07-26T17:13:58.151Z,58.67
2022-07-26T17:16:25.038Z,57.26
2022-07-26T17:18:53.271Z,56.85
2022-07-26T17:21:20.412Z,55.77
2022-07-26T17:23:47.215Z,54.59
2022-07-26T17:26:13.874Z,55.51
2022-07-26T17:28:40.546Z,55.92
2022-07-26T17:31:07.135Z,56.65
2022-07-26T17:33:33.738Z,57.04
2022-07-26T17:36:03.213Z,57.79
2022-07-26T17:38:33.530Z,58.35
2022-07-26T17:41:00.772Z,56.58
2022-07-26T17:43:36.818Z,56.16
2022-07-26T17:46:04.049Z,57.00
2022-07-26T17:48:30.760Z,56.70
2022-07-26T17:50:57.459Z,56.76
2022-07-26T17:53:31.711Z,57.16
2022-07-26T17:56:02.862Z,56.05
2022-07-26T17:58:29.404Z,55.98
2022-07-26T18:00:56.092Z,55.72
2022-07-26T18:03:23.203Z,56.00
2022-07-26T18:05:50.639Z,56.76
2022-07-26T18:10:48.904Z,56.89
2022-07-26T18:13:17.801Z,56.63
2022-07-26T18:15:44.694Z,56.90
2022-07-26T18:18:11.343Z,55.98
2022-07-26T18:20:38.016Z,55.49
2022-07-26T18:23:04.748Z,56.19
2022-07-26T18:25:31.254Z,56.33
2022-07-26T18:27:59.225Z,56.28
2022-07-26T18:30:32.080Z,55.79
2022-07-26T18:32:59.562Z,56.73
2022-07-26T18:35:26.149Z,56.38
2022-07-26T18:37:53.018Z,55.63
2022-07-26T18:40:24.963Z,54.29
2022-07-26T18:42:52.202Z,54.27
2022-07-26T18:45:18.729Z,54.27
2022-07-26T18:47:45.251Z,53.36
2022-07-26T18:50:15.299Z,53.16
2022-07-26T18:52:44.415Z,52.37
2022-07-26T18:55:12.553Z,51.54
2022-07-26T18:57:41.682Z,51.62
2022-07-26T19:00:10.609Z,52.58
2022-07-26T19:02:37.268Z,53.78
2022-07-26T19:05:05.220Z,54.59
2022-07-26T19:07:31.992Z,54.98
2022-07-26T19:09:59.745Z,54.34
2022-07-26T19:12:29.251Z,54.99
2022-07-26T19:14:55.879Z,54.26
2022-07-26T19:17:22.867Z,53.40
2022-07-26T19:19:49.499Z,53.15
2022-07-26T19:22:16.016Z,52.30
2022-07-26T19:24:42.560Z,53.20
2022-07-26T19:27:09.494Z,52.81
2022-07-26T19:29:37.559Z,52.30
2022-07-26T19:32:05.395Z,52.51
2022-07-26T19:34:32.106Z,52.22
2022-07-26T19:36:58.699Z,51.50
2022-07-26T19:39:25.424Z,51.25
2022-07-26T19:41:52.243Z,50.92
2022-07-26T19:44:19.084Z,50.80
2022-07-26T19:46:47.395Z,50.82
2022-07-26T19:49:16.074Z,50.94
2022-07-26T19:51:43.816Z,50.47
2022-07-26T19:54:10.488Z,50.74
2022-07-26T19:56:37.184Z,50.61
2022-07-26T19:59:03.831Z,50.78
2022-07-26T20:01:30.489Z,50.62
2022-07-26T20:03:57.103Z,49.91
2022-07-26T20:06:23.943Z,49.48
2022-07-26T20:08:50.763Z,49.47
2022-07-26T20:11:19.836Z,47.99
2022-07-26T20:13:47.053Z,48.37
2022-07-26T20:16:13.687Z,48.73
2022-07-26T20:18:40.300Z,47.80
2022-07-26T20:21:06.916Z,47.62
2022-07-26T20:23:33.977Z,47.69
2022-07-26T20:26:01.253Z,47.81
2022-07-26T20:28:28.060Z,47.68
2022-07-26T20:30:55.083Z,47.54
2022-07-26T20:33:21.954Z,47.30
2022-07-26T20:35:52.943Z,47.39
2022-07-26T20:38:21.552Z,47.53
2022-07-26T20:40:48.166Z,47.37
2022-07-26T20:43:14.934Z,47.30
2022-07-26T20:45:41.496Z,46.94
2022-07-26T20:48:08.523Z,47.17
2022-07-26T20:50:36.468Z,47.06
2022-07-26T20:53:03.468Z,47.36
2022-07-26T20:55:30.067Z,47.38
2022-07-26T20:57:56.760Z,47.81
2022-07-26T21:00:24.797Z,47.13
2022-07-26T21:02:53.693Z,47.50
2022-07-26T21:05:21.067Z,47.94
2022-07-26T21:07:55.648Z,48.38
2022-07-26T21:10:27.711Z,49.28
2022-07-26T21:12:57.219Z,49.37
2022-07-26T21:15:23.848Z,49.84
2022-07-26T21:17:50.383Z,49.05
2022-07-26T21:20:17.153Z,48.11
2022-07-26T21:22:43.648Z,47.41
2022-07-26T21:25:10.325Z,47.31
2022-07-26T21:27:38.267Z,46.99
2022-07-26T21:30:06.119Z,46.26
2022-07-26T21:32:32.684Z,46.02
2022-07-26T21:34:59.467Z,45.79
2022-07-26T21:37:26.342Z,45.89
2022-07-26T21:39:53.054Z,45.88
2022-07-26T21:42:19.632Z,45.73
2022-07-26T21:44:46.198Z,45.22
2022-07-26T21:47:12.704Z,44.92
2022-07-26T21:49:39.252Z,45.15
2022-07-26T21:52:05.864Z,44.31
2022-07-26T21:54:32.457Z,44.70
2022-07-26T21:56:59.009Z,44.97
2022-07-26T21:59:25.803Z,44.36
2022-07-26T22:01:52.397Z,44.02
2022-07-26T22:04:18.994Z,44.68
2022-07-26T22:06:45.806Z,44.32
2022-07-26T22:09:12.795Z,44.70
2022-07-26T22:11:39.506Z,44.53
2022-07-26T22:14:08.381Z,44.02
2022-07-26T22:16:35.629Z,43.34
2022-07-26T22:19:02.561Z,43.50
2022-07-26T22:21:29.266Z,43.17
2022-07-26T22:23:55.814Z,42.67
2022-07-26T22:26:26.135Z,43.04
2022-07-26T22:28:52.884Z,43.14
2022-07-26T22:31:19.614Z,43.02
2022-07-26T22:33:48.463Z,43.05
2022-07-26T22:36:15.223Z,42.86
2022-07-26T22:38:41.845Z,42.18
2022-07-26T22:41:08.404Z,41.89
2022-07-26T22:43:34.933Z,41.70
2022-07-26T22:46:01.510Z,41.53
2022-07-26T22:48:28.119Z,41.82
2022-07-26T22:50:54.733Z,41.60
2022-07-26T22:53:21.780Z,41.49
2022-07-26T22:55:48.312Z,41.20
2022-07-26T22:58:14.900Z,41.29
2022-07-26T23:00:41.754Z,41.50
2022-07-26T23:03:19.794Z,41.02
2022-07-26T23:05:48.013Z,41.74
2022-07-26T23:08:46.377Z,41.50
2022-07-26T23:11:01.896Z,41.00
2022-07-26T23:13:28.484Z,41.11
2022-07-26T23:16:00.373Z,42.27
2022-07-26T23:18:28.565Z,41.47
2022-07-26T23:20:55.102Z,42.34
2022-07-26T23:23:22.047Z,41.98
2022-07-26T23:25:51.143Z,41.93
2022-07-26T23:28:35.668Z,42.19
2022-07-26T23:31:03.733Z,42.36
2022-07-26T23:33:53.045Z,42.83
2022-07-26T23:36:16.875Z,42.23
2022-07-26T23:38:43.759Z,42.46
2022-07-26T23:41:10.434Z,42.19
2022-07-26T23:43:37.071Z,41.95
2022-07-26T23:46:03.617Z,42.11
2022-07-26T23:48:30.550Z,42.25
2022-07-26T23:50:57.502Z,42.83
2022-07-26T23:53:26.654Z,43.06
2022-07-26T23:55:54.096Z,42.67
2022-07-26T23:58:20.988Z,42.55
